createdAt,value
2022-10-23T00:01:45.518Z,96.33
2022-10-23T00:04:17.725Z,96.43
2022-10-23T00:06:46.619Z,96.52
2022-10-23T00:09:17.664Z,96.52
2022-10-23T00:11:51.028Z,96.47
2022-10-23T00:14:22.491Z,96.51
2022-10-23T00:16:50.842Z,96.50
2022-10-23T00:19:18.857Z,96.83
2022-10-23T00:21:46.909Z,96.75
2022-10-23T00:24:15.252Z,96.72
2022-10-23T00:26:43.713Z,96.86
2022-10-23T00:29:12.305Z,96.71
2022-10-23T00:31:40.342Z,96.83
2022-10-23T00:34:08.937Z,96.85
2022-10-23T00:36:38.190Z,96.77
2022-10-23T00:39:06.989Z,96.76
2022-10-23T00:41:35.132Z,96.92
2022-10-23T00:44:10.243Z,97.08
2022-10-23T00:46:40.203Z,97.29
2022-10-23T00:49:09.894Z,97.03
2022-10-23T00:51:49.033Z,97.24
2022-10-23T00:54:24.306Z,97.07
2022-10-23T00:56:56.172Z,97.06
2022-10-23T00:59:25.145Z,97.04
2022-10-23T01:01:53.239Z,96.95
2022-10-23T01:04:22.682Z,96.96
2022-10-23T01:06:58.695Z,96.96
2022-10-23T01:09:31.576Z,97.08
2022-10-23T01:12:11.846Z,96.96
2022-10-23T01:14:47.382Z,96.77
2022-10-23T01:17:44.436Z,96.98
2022-10-23T01:20:34.595Z,97.16
2022-10-23T01:23:22.273Z,97.09
2022-10-23T01:26:27.818Z,96.93
2022-10-23T01:29:03.512Z,96.99
2022-10-23T01:31:42.883Z,96.84
2022-10-23T01:34:16.514Z,96.73
2022-10-23T01:36:49.271Z,96.77
2022-10-23T01:39:27.870Z,96.82
2022-10-23T01:42:24.261Z,96.80
2022-10-23T01:45:07.173Z,96.83
2022-10-23T01:47:44.046Z,96.94
2022-10-23T01:50:15.601Z,96.78
2022-10-23T01:52:46.532Z,96.72
2022-10-23T01:55:15.485Z,96.67
2022-10-23T01:57:46.661Z,96.71
2022-10-23T02:00:17.837Z,96.73
2022-10-23T02:02:57.787Z,96.59
2022-10-23T02:05:32.092Z,96.57
2022-10-23T02:08:01.525Z,96.61
2022-10-23T02:10:40.378Z,96.66
2022-10-23T02:13:21.525Z,96.89
2022-10-23T02:16:01.988Z,96.87
2022-10-23T02:18:44.878Z,96.65
2022-10-23T02:21:17.877Z,96.72
2022-10-23T02:23:56.897Z,96.68
2022-10-23T02:26:33.646Z,96.52
2022-10-23T02:29:15.344Z,96.56
2022-10-23T02:31:46.094Z,96.46
2022-10-23T02:34:14.069Z,96.46
2022-10-23T02:36:42.866Z,96.37
2022-10-23T02:39:11.257Z,96.34
2022-10-23T02:41:42.592Z,96.39
2022-10-23T02:44:31.363Z,96.26
2022-10-23T02:47:23.606Z,96.38
2022-10-23T02:50:11.241Z,96.17
2022-10-23T02:52:54.095Z,96.18
2022-10-23T02:55:54.170Z,96.26
2022-10-23T02:58:39.334Z,96.28
2022-10-23T03:01:18.087Z,96.18
2022-10-23T03:03:53.532Z,96.28
2022-10-23T03:06:22.941Z,96.23
2022-10-23T03:08:58.200Z,96.33
2022-10-23T03:11:26.822Z,96.28
2022-10-23T03:13:56.371Z,96.17
2022-10-23T03:16:24.724Z,96.30
2022-10-23T03:18:55.441Z,96.35
2022-10-23T03:21:24.354Z,96.29
2022-10-23T03:23:54.088Z,96.14
2022-10-23T03:26:28.862Z,96.18
2022-10-23T03:28:56.950Z,96.42
2022-10-23T03:31:25.002Z,96.37
2022-10-23T03:33:56.610Z,96.31
2022-10-23T03:36:24.913Z,96.25
2022-10-23T03:38:53.959Z,96.22
2022-10-23T03:41:22.225Z,96.24
2022-10-23T03:43:50.244Z,96.26
2022-10-23T03:46:18.170Z,96.20
2022-10-23T03:48:46.251Z,96.20
2022-10-23T03:51:14.362Z,96.25
2022-10-23T03:53:42.310Z,96.16
2022-10-23T03:56:10.389Z,96.40
2022-10-23T03:58:38.363Z,96.49
2022-10-23T04:01:06.347Z,96.49
2022-10-23T04:03:34.350Z,96.50
2022-10-23T04:06:02.448Z,96.59
2022-10-23T04:08:30.570Z,96.40
2022-10-23T04:10:58.894Z,96.35
2022-10-23T04:13:43.159Z,96.33
2022-10-23T04:16:11.356Z,96.18
2022-10-23T04:18:42.256Z,96.34
2022-10-23T04:21:12.087Z,96.27
2022-10-23T04:23:40.236Z,96.14
2022-10-23T04:26:13.863Z,96.08
2022-10-23T04:28:41.974Z,96.08
2022-10-23T04:31:10.582Z,96.08
2022-10-23T04:33:41.940Z,96.18
2022-10-23T04:36:10.775Z,96.17
2022-10-23T04:38:40.461Z,96.29
2022-10-23T04:41:08.651Z,96.38
2022-10-23T04:43:36.996Z,96.44
2022-10-23T04:46:05.936Z,96.46
2022-10-23T04:48:35.617Z,96.62
2022-10-23T04:51:41.783Z,96.45
2022-10-23T04:54:37.876Z,96.47
2022-10-23T04:57:24.566Z,96.42
2022-10-23T05:00:14.963Z,96.32
2022-10-23T05:02:50.823Z,96.12
2022-10-23T05:05:19.195Z,96.16
2022-10-23T05:07:57.496Z,96.28
2022-10-23T05:10:31.525Z,96.38
2022-10-23T05:13:07.632Z,96.21
2022-10-23T05:15:35.921Z,96.32
2022-10-23T05:18:13.397Z,96.37
2022-10-23T05:20:45.105Z,96.38
2022-10-23T05:23:16.751Z,96.33
2022-10-23T05:25:53.660Z,96.29
2022-10-23T05:28:22.886Z,96.29
2022-10-23T05:30:51.295Z,96.20
2022-10-23T05:33:19.855Z,96.35
2022-10-23T05:35:50.984Z,96.26
2022-10-23T05:38:19.465Z,96.40
2022-10-23T05:40:47.688Z,96.36
2022-10-23T05:43:18.976Z,96.41
2022-10-23T05:46:07.778Z,96.44
2022-10-23T05:48:51.085Z,96.54
2022-10-23T05:51:39.522Z,96.49
2022-10-23T05:54:27.756Z,96.53
2022-10-23T05:59:51.526Z,96.57
2022-10-23T06:02:42.935Z,96.60
2022-10-23T06:05:35.910Z,96.61
2022-10-23T06:08:20.071Z,96.69
2022-10-23T06:10:50.031Z,96.75
2022-10-23T06:13:18.097Z,96.89
2022-10-23T06:15:46.398Z,96.81
2022-10-23T06:18:20.857Z,96.76
2022-10-23T06:21:05.368Z,96.92
2022-10-23T06:23:35.448Z,96.88
2022-10-23T06:26:29.455Z,96.75
2022-10-23T06:29:06.748Z,96.85
2022-10-23T06:31:35.039Z,96.79
2022-10-23T06:34:06.164Z,96.73
2022-10-23T06:36:34.453Z,96.88
2022-10-23T06:39:21.277Z,96.89
2022-10-23T06:42:07.888Z,96.99
2022-10-23T06:45:06.252Z,97.06
2022-10-23T06:47:54.193Z,97.11
2022-10-23T06:50:42.467Z,97.10
2022-10-23T06:53:13.625Z,97.28
2022-10-23T06:55:50.022Z,97.27
2022-10-23T06:58:21.201Z,97.27
2022-10-23T07:01:13.006Z,97.20
2022-10-23T07:03:42.654Z,97.28
2022-10-23T07:06:11.592Z,97.12
2022-10-23T07:08:40.457Z,97.85
2022-10-23T07:11:34.839Z,98.04
2022-10-23T07:14:03.028Z,97.82
2022-10-23T07:16:32.151Z,96.70
2022-10-23T07:19:02.028Z,96.71
2022-10-23T07:21:35.247Z,96.45
2022-10-23T07:24:17.446Z,96.77
2022-10-23T07:26:45.775Z,96.69
2022-10-23T07:29:15.234Z,96.77
2022-10-23T07:31:43.626Z,96.81
2022-10-23T07:34:27.877Z,97.03
2022-10-23T07:37:12.306Z,97.38
2022-10-23T07:39:40.387Z,96.90
2022-10-23T07:42:10.235Z,96.77
2022-10-23T07:44:38.283Z,96.80
2022-10-23T07:47:06.463Z,96.75
2022-10-23T07:49:34.681Z,96.93
2022-10-23T07:52:05.471Z,96.74
2022-10-23T07:54:43.059Z,96.60
2022-10-23T07:57:21.600Z,96.82
2022-10-23T08:02:58.024Z,96.59
2022-10-23T08:05:26.353Z,96.89
2022-10-23T08:07:58.856Z,96.43
2022-10-23T08:10:26.983Z,96.40
2022-10-23T08:12:55.190Z,97.05
2022-10-23T08:15:32.107Z,96.60
2022-10-23T08:18:04.632Z,96.74
2022-10-23T08:20:48.118Z,96.19
2022-10-23T08:23:18.627Z,96.28
2022-10-23T08:25:47.191Z,96.25
2022-10-23T08:28:16.669Z,96.68
2022-10-23T08:30:52.513Z,96.61
2022-10-23T08:33:20.869Z,96.56
2022-10-23T08:35:49.302Z,96.58
2022-10-23T08:38:20.673Z,96.62
2022-10-23T08:40:49.682Z,96.80
2022-10-23T08:43:57.011Z,96.24
2022-10-23T08:46:42.356Z,96.57
2022-10-23T08:49:54.077Z,96.14
2022-10-23T08:52:25.523Z,96.36
2022-10-23T08:54:58.195Z,96.24
2022-10-23T08:57:39.993Z,96.08
2022-10-23T09:00:18.483Z,96.05
2022-10-23T09:02:49.821Z,96.02
2022-10-23T09:05:20.863Z,95.76
2022-10-23T09:08:17.857Z,95.41
2022-10-23T09:11:07.471Z,95.34
2022-10-23T09:13:38.551Z,95.56
2022-10-23T09:16:22.947Z,94.80
2022-10-23T09:18:52.337Z,95.04
2022-10-23T09:21:22.014Z,94.99
2022-10-23T09:23:49.960Z,95.11
2022-10-23T09:26:19.234Z,95.03
2022-10-23T09:28:53.073Z,95.04
2022-10-23T09:31:21.173Z,94.97
2022-10-23T09:34:01.171Z,95.04
2022-10-23T09:36:29.935Z,95.02
2022-10-23T09:39:00.448Z,94.97
2022-10-23T09:41:28.389Z,95.03
2022-10-23T09:44:08.765Z,95.03
2022-10-23T09:46:38.105Z,94.72
2022-10-23T09:49:08.035Z,94.75
2022-10-23T09:51:42.038Z,94.90
2022-10-23T09:54:16.852Z,94.69
2022-10-23T09:59:24.169Z,94.34
2022-10-23T10:01:58.318Z,94.21
2022-10-23T10:04:55.824Z,94.33
2022-10-23T10:07:27.345Z,94.14
2022-10-23T10:09:56.888Z,93.13
2022-10-23T10:12:53.299Z,92.78
2022-10-23T10:15:31.744Z,92.84
2022-10-23T10:18:22.996Z,93.28
2022-10-23T10:21:20.888Z,92.61
2022-10-23T10:24:13.838Z,92.58
2022-10-23T10:27:11.877Z,92.38
2022-10-23T10:29:48.982Z,92.11
2022-10-23T10:32:20.541Z,91.91
2022-10-23T10:35:14.985Z,91.71
2022-10-23T10:37:57.400Z,91.26
2022-10-23T10:40:43.746Z,91.13
2022-10-23T10:43:39.561Z,91.07
2022-10-23T10:46:43.120Z,91.11
2022-10-23T10:49:19.942Z,91.05
2022-10-23T10:52:11.176Z,90.53
2022-10-23T10:54:57.937Z,90.65
2022-10-23T10:57:44.332Z,90.28
2022-10-23T11:00:18.908Z,90.54
2022-10-23T11:03:09.686Z,90.26
2022-10-23T11:05:46.785Z,89.58
2022-10-23T11:08:40.199Z,89.09
2022-10-23T11:11:38.007Z,88.33
2022-10-23T11:14:14.672Z,88.74
2022-10-23T11:16:48.260Z,88.11
2022-10-23T11:19:25.708Z,87.97
2022-10-23T11:21:59.573Z,87.33
2022-10-23T11:24:58.521Z,87.53
2022-10-23T11:27:31.701Z,87.94
2022-10-23T11:30:21.366Z,87.63
2022-10-23T11:32:51.931Z,87.47
2022-10-23T11:35:57.467Z,86.64
2022-10-23T11:38:30.467Z,86.25
2022-10-23T11:41:02.702Z,86.01
2022-10-23T11:43:48.655Z,85.29
2022-10-23T11:46:26.495Z,84.37
2022-10-23T11:48:56.209Z,84.64
2022-10-23T11:51:31.686Z,84.74
2022-10-23T11:54:12.216Z,84.27
2022-10-23T11:57:08.076Z,83.57
2022-10-23T11:59:41.371Z,83.73
2022-10-23T12:02:36.931Z,83.61
2022-10-23T12:05:25.415Z,83.43
2022-10-23T12:07:59.446Z,83.22
2022-10-23T12:10:31.298Z,82.98
2022-10-23T12:13:02.007Z,82.95
2022-10-23T12:15:32.535Z,82.95
2022-10-23T12:18:29.930Z,83.10
2022-10-23T12:21:00.223Z,82.85
2022-10-23T12:24:00.506Z,82.63
2022-10-23T12:26:50.653Z,82.77
2022-10-23T12:29:37.001Z,82.12
2022-10-23T12:32:04.840Z,81.27
2022-10-23T12:34:51.754Z,81.57
2022-10-23T12:37:29.144Z,81.46
2022-10-23T12:39:59.290Z,81.51
2022-10-23T12:42:29.701Z,81.61
2022-10-23T12:44:59.909Z,80.73
2022-10-23T12:47:30.168Z,80.95
2022-10-23T12:49:58.220Z,80.62
2022-10-23T12:52:26.332Z,80.14
2022-10-23T12:54:54.362Z,80.00
2022-10-23T12:57:26.564Z,79.12
2022-10-23T13:00:11.136Z,79.22
2022-10-23T13:02:39.255Z,79.42
2022-10-23T13:05:13.435Z,79.38
2022-10-23T13:07:46.392Z,79.05
2022-10-23T13:10:20.123Z,78.57
2022-10-23T13:13:07.009Z,79.37
2022-10-23T13:15:45.152Z,79.37
2022-10-23T13:18:15.011Z,79.04
2022-10-23T13:20:56.820Z,78.47
2022-10-23T13:23:33.299Z,78.07
2022-10-23T13:26:02.687Z,77.64
2022-10-23T13:28:43.939Z,78.08
2022-10-23T13:31:12.580Z,78.17
2022-10-23T13:33:48.090Z,78.20
2022-10-23T13:36:16.819Z,78.13
2022-10-23T13:38:46.221Z,77.89
2022-10-23T13:41:21.471Z,78.07
2022-10-23T13:43:49.578Z,78.03
2022-10-23T13:46:23.352Z,77.96
2022-10-23T13:48:51.924Z,78.10
2022-10-23T13:51:25.437Z,77.79
2022-10-23T13:53:55.452Z,78.04
2022-10-23T13:56:25.589Z,77.99
2022-10-23T13:58:53.973Z,78.21
2022-10-23T14:01:32.695Z,78.17
2022-10-23T14:04:00.952Z,78.18
2022-10-23T14:06:28.826Z,78.34
2022-10-23T14:08:57.362Z,78.38
2022-10-23T14:11:25.993Z,78.60
2022-10-23T14:13:54.035Z,78.70
2022-10-23T14:16:22.468Z,78.89
2022-10-23T14:18:50.489Z,78.92
2022-10-23T14:21:20.693Z,78.95
2022-10-23T14:23:50.438Z,78.83
2022-10-23T14:26:22.201Z,79.01
2022-10-23T14:28:53.187Z,78.94
2022-10-23T14:31:21.993Z,79.13
2022-10-23T14:33:56.205Z,79.12
2022-10-23T14:36:28.244Z,79.11
2022-10-23T14:39:02.798Z,79.40
2022-10-23T14:41:30.755Z,79.27
2022-10-23T14:43:58.808Z,79.29
2022-10-23T14:46:28.155Z,79.48
2022-10-23T14:48:59.877Z,79.41
2022-10-23T14:51:32.201Z,79.64
2022-10-23T14:54:02.562Z,79.56
2022-10-23T14:56:33.395Z,79.57
2022-10-23T14:59:04.800Z,79.65
2022-10-23T15:01:36.106Z,79.73
2022-10-23T15:04:04.853Z,79.89
2022-10-23T15:06:33.749Z,79.91
2022-10-23T15:09:03.068Z,79.96
2022-10-23T15:11:31.771Z,79.72
2022-10-23T15:14:00.727Z,79.75
2022-10-23T15:16:28.786Z,79.75
2022-10-23T15:18:56.940Z,79.72
2022-10-23T15:21:25.315Z,79.73
2022-10-23T15:23:54.873Z,79.85
2022-10-23T15:26:24.071Z,80.12
2022-10-23T15:28:57.685Z,80.22
2022-10-23T15:31:43.579Z,79.94
2022-10-23T15:34:16.422Z,80.36
2022-10-23T15:36:47.121Z,80.24
2022-10-23T15:39:18.112Z,80.35
2022-10-23T15:41:47.344Z,80.43
2022-10-23T15:44:17.637Z,80.29
2022-10-23T15:46:45.870Z,80.41
2022-10-23T15:49:14.117Z,80.39
2022-10-23T15:51:42.812Z,80.73
2022-10-23T15:54:16.766Z,80.76
2022-10-23T15:56:50.457Z,80.52
2022-10-23T15:59:21.052Z,80.84
2022-10-23T16:01:50.027Z,81.16
2022-10-23T16:04:18.370Z,80.89
2022-10-23T16:06:46.763Z,80.98
2022-10-23T16:09:15.840Z,80.71
2022-10-23T16:11:44.451Z,80.93
2022-10-23T16:14:15.122Z,80.87
2022-10-23T16:16:43.210Z,80.96
2022-10-23T16:19:12.149Z,81.22
2022-10-23T16:21:40.447Z,81.27
2022-10-23T16:24:09.146Z,81.31
2022-10-23T16:26:37.939Z,81.45
2022-10-23T16:29:08.132Z,81.42
2022-10-23T16:31:36.707Z,81.79
2022-10-23T16:34:05.568Z,81.68
2022-10-23T16:36:34.568Z,81.33
2022-10-23T16:39:15.413Z,81.62
2022-10-23T16:42:02.115Z,81.80
2022-10-23T16:44:53.342Z,82.09
2022-10-23T16:47:21.425Z,82.21
2022-10-23T16:49:49.419Z,82.09
2022-10-23T16:52:17.444Z,82.51
2022-10-23T16:54:45.561Z,82.58
2022-10-23T16:57:13.600Z,82.22
2022-10-23T16:59:41.589Z,82.43
2022-10-23T17:02:11.888Z,82.08
2022-10-23T17:04:40.613Z,82.25
2022-10-23T17:07:08.809Z,82.45
2022-10-23T17:09:38.621Z,82.69
2022-10-23T17:12:07.012Z,82.67
2022-10-23T17:14:35.034Z,82.62
2022-10-23T17:17:03.800Z,82.67
2022-10-23T17:19:44.135Z,82.54
2022-10-23T17:22:13.469Z,82.79
2022-10-23T17:24:42.592Z,82.71
2022-10-23T17:27:10.922Z,82.82
2022-10-23T17:29:39.490Z,82.94
2022-10-23T17:32:08.276Z,82.92
2022-10-23T17:34:36.453Z,83.08
2022-10-23T17:37:05.059Z,83.01
2022-10-23T17:39:33.110Z,83.21
2022-10-23T17:42:01.050Z,83.16
2022-10-23T17:44:29.396Z,83.30
2022-10-23T17:46:57.439Z,83.30
2022-10-23T17:49:25.816Z,83.39
2022-10-23T17:51:55.873Z,83.39
2022-10-23T17:54:26.486Z,83.58
2022-10-23T17:56:55.573Z,83.58
2022-10-23T17:59:23.727Z,83.66
2022-10-23T18:01:51.934Z,83.70
2022-10-23T18:04:21.416Z,83.68
2022-10-23T18:06:53.069Z,83.74
2022-10-23T18:09:22.751Z,83.80
2022-10-23T18:11:52.876Z,83.73
2022-10-23T18:14:21.740Z,83.90
2022-10-23T18:16:52.634Z,84.03
2022-10-23T18:19:20.833Z,84.18
2022-10-23T18:21:49.869Z,84.01
2022-10-23T18:24:18.992Z,84.18
2022-10-23T18:26:48.379Z,84.17
2022-10-23T18:29:17.597Z,84.22
2022-10-23T18:31:48.385Z,84.30
2022-10-23T18:34:22.013Z,84.39
2022-10-23T18:36:51.991Z,84.49
2022-10-23T18:39:22.819Z,84.40
2022-10-23T18:41:53.427Z,84.55
2022-10-23T18:44:22.936Z,84.65
2022-10-23T18:46:51.971Z,84.65
2022-10-23T18:49:20.449Z,84.69
2022-10-23T18:51:50.220Z,84.78
2022-10-23T18:54:20.558Z,84.83
2022-10-23T18:56:48.813Z,84.90
2022-10-23T18:59:20.157Z,84.93
2022-10-23T19:01:49.210Z,84.99
2022-10-23T19:04:18.589Z,85.06
2022-10-23T19:06:49.520Z,85.03
2022-10-23T19:09:18.096Z,85.14
2022-10-23T19:11:46.297Z,85.23
2022-10-23T19:14:14.625Z,85.29
2022-10-23T19:17:23.328Z,85.34
2022-10-23T19:19:59.704Z,85.25
2022-10-23T19:22:30.146Z,85.28
2022-10-23T19:25:05.628Z,85.33
2022-10-23T19:27:33.711Z,85.47
2022-10-23T19:30:05.211Z,85.56
2022-10-23T19:32:33.612Z,85.73
2022-10-23T19:35:01.731Z,85.79
2022-10-23T19:37:29.890Z,85.90
2022-10-23T19:39:58.537Z,85.87
2022-10-23T19:42:26.451Z,85.98
2022-10-23T19:44:54.586Z,85.80
2022-10-23T19:47:22.812Z,85.78
2022-10-23T19:49:52.015Z,85.99
2022-10-23T19:52:22.334Z,86.20
2022-10-23T19:54:51.367Z,86.09
2022-10-23T19:57:22.499Z,86.12
2022-10-23T19:59:52.925Z,86.20
2022-10-23T20:02:22.108Z,86.27
2022-10-23T20:04:51.477Z,86.14
2022-10-23T20:07:19.527Z,86.15
2022-10-23T20:09:47.668Z,86.10
2022-10-23T20:12:15.781Z,86.24
2022-10-23T20:14:44.412Z,86.26
2022-10-23T20:17:12.434Z,86.23
2022-10-23T20:19:40.557Z,86.30
2022-10-23T20:22:08.569Z,86.41
2022-10-23T20:24:36.651Z,86.40
2022-10-23T20:27:04.604Z,86.37
2022-10-23T20:29:32.594Z,86.43
2022-10-23T20:32:00.640Z,86.54
2022-10-23T20:34:28.674Z,86.53
2022-10-23T20:36:56.666Z,86.94
2022-10-23T20:39:25.775Z,86.83
2022-10-23T20:41:57.060Z,87.09
2022-10-23T20:44:25.027Z,87.14
2022-10-23T20:46:53.384Z,87.15
2022-10-23T20:49:22.689Z,87.20
2022-10-23T20:51:55.158Z,87.15
2022-10-23T20:54:25.823Z,87.03
2022-10-23T20:56:53.827Z,87.02
2022-10-23T20:59:21.925Z,87.14
2022-10-23T21:01:53.486Z,87.18
2022-10-23T21:04:25.088Z,87.21
2022-10-23T21:07:09.427Z,87.30
2022-10-23T21:09:38.750Z,87.48
2022-10-23T21:12:07.313Z,87.25
2022-10-23T21:14:36.241Z,87.46
2022-10-23T21:17:05.250Z,87.34
2022-10-23T21:19:33.213Z,87.34
2022-10-23T21:22:04.319Z,87.36
2022-10-23T21:24:32.351Z,87.49
2022-10-23T21:27:00.402Z,87.56
2022-10-23T21:29:28.406Z,87.55
2022-10-23T21:31:59.398Z,87.60
2022-10-23T21:34:28.341Z,87.65
2022-10-23T21:37:13.404Z,87.62
2022-10-23T21:39:43.578Z,87.46
2022-10-23T21:42:12.953Z,87.59
2022-10-23T21:44:40.907Z,87.54
2022-10-23T21:47:08.953Z,87.71
2022-10-23T21:49:37.273Z,87.81
2022-10-23T21:52:05.263Z,87.47
2022-10-23T21:54:33.351Z,87.72
2022-10-23T21:57:03.333Z,87.49
2022-10-23T21:59:35.571Z,87.62
2022-10-23T22:02:04.377Z,87.62
2022-10-23T22:04:32.891Z,87.77
2022-10-23T22:07:03.148Z,87.68
2022-10-23T22:09:32.341Z,87.77
2022-10-23T22:12:01.169Z,87.72
2022-10-23T22:14:29.311Z,87.70
2022-10-23T22:16:58.691Z,87.66
2022-10-23T22:19:26.948Z,87.79
2022-10-23T22:21:55.579Z,87.93
2022-10-23T22:24:23.911Z,87.96
2022-10-23T22:26:54.636Z,87.93
2022-10-23T22:29:27.589Z,88.01
2022-10-23T22:31:56.791Z,88.16
2022-10-23T22:37:17.194Z,88.26
2022-10-23T22:39:45.284Z,88.11
2022-10-23T22:42:13.361Z,88.18
2022-10-23T22:44:41.425Z,88.15
2022-10-23T22:47:09.614Z,88.33
2022-10-23T22:49:38.565Z,88.52
2022-10-23T22:52:06.677Z,88.60
2022-10-23T22:54:34.841Z,88.36
2022-10-23T22:57:02.875Z,88.28
2022-10-23T22:59:30.888Z,88.24
2022-10-23T23:01:58.860Z,88.48
2022-10-23T23:04:43.094Z,88.39
2022-10-23T23:07:12.784Z,88.28
2022-10-23T23:09:44.089Z,88.31
2022-10-23T23:12:14.187Z,88.29
2022-10-23T23:14:43.354Z,88.36
2022-10-23T23:17:12.178Z,88.27
2022-10-23T23:19:40.288Z,88.25
2022-10-23T23:22:08.568Z,88.31
2022-10-23T23:24:36.651Z,88.34
2022-10-23T23:27:04.678Z,88.38
2022-10-23T23:29:32.798Z,88.42
2022-10-23T23:32:00.946Z,88.41
2022-10-23T23:34:29.464Z,88.35
2022-10-23T23:36:57.889Z,88.58
2022-10-23T23:39:26.477Z,88.37
2022-10-23T23:41:54.852Z,88.59
2022-10-23T23:44:23.070Z,88.34
2022-10-23T23:46:51.139Z,88.51
2022-10-23T23:49:19.112Z,88.62
2022-10-23T23:51:47.267Z,88.58
2022-10-23T23:54:15.505Z,88.62
2022-10-23T23:56:43.519Z,88.50
2022-10-23T23:59:11.558Z,88.44
